Time;durP1;ratioP1;P1;durP2;ratioP2;P2;SDS_P1;SDS_P2;PMS_P1;PMS_P2;Temp;Humidity;BMP_temperature;BMP_pressure;BME280_temperature;BME280_humidity;BME280_pressure;Samples;Min_cycle;Max_cycle;Signal;HPM_P1;HPM_P2
2022/04/23 00:01:28;;;;;;;9.15;8.40;;;10.90;94.80;;;;;;5053895;28;20185;-68
2022/04/23 00:03:53;;;;;;;9.70;8.90;;;10.90;94.90;;;;;;5053209;28;20174;-68
2022/04/23 00:06:19;;;;;;;9.88;9.05;;;10.90;94.90;;;;;;5052811;28;20272;-68
2022/04/23 00:08:44;;;;;;;9.88;8.88;;;10.80;95.20;;;;;;5052399;28;20200;-68
2022/04/23 00:11:10;;;;;;;9.93;8.93;;;10.90;95.20;;;;;;5054112;28;20174;-68
2022/04/23 00:13:38;;;;;;;10.55;8.65;;;10.80;95.00;;;;;;5052877;28;20206;-68
2022/04/23 00:16:05;;;;;;;9.30;8.50;;;10.80;95.30;;;;;;5052184;28;20197;-68
2022/04/23 00:18:30;;;;;;;11.00;8.30;;;10.80;95.10;;;;;;5052243;28;20190;-68
2022/04/23 00:20:56;;;;;;;9.90;9.00;;;10.90;95.00;;;;;;5052108;28;20185;-68
2022/04/23 00:23:22;;;;;;;9.10;8.30;;;10.90;94.90;;;;;;5053430;28;20252;-68
2022/04/23 00:25:51;;;;;;;10.27;9.20;;;10.90;94.90;;;;;;5053038;28;20545;-68
2022/04/23 00:28:17;;;;;;;10.05;8.90;;;10.90;94.70;;;;;;5053081;28;20204;-68
2022/04/23 00:30:44;;;;;;;9.57;8.70;;;10.90;94.60;;;;;;5051768;28;20284;-68
2022/04/23 00:33:10;;;;;;;8.95;8.25;;;10.90;94.60;;;;;;5052032;28;20188;-68
2022/04/23 00:35:36;;;;;;;9.95;9.05;;;11.00;94.20;;;;;;5053634;28;20257;-68
2022/04/23 00:38:03;;;;;;;10.75;9.10;;;11.00;93.80;;;;;;5051975;28;20217;-68
2022/04/23 00:40:28;;;;;;;10.05;9.15;;;11.00;93.70;;;;;;5056756;28;20182;-68
2022/04/23 00:42:56;;;;;;;10.70;9.60;;;11.00;93.70;;;;;;5055721;28;20178;-68
2022/04/23 00:45:23;;;;;;;11.40;10.07;;;10.80;94.30;;;;;;5055812;28;20178;-68
2022/04/23 00:47:49;;;;;;;11.80;10.52;;;10.80;94.70;;;;;;5055815;28;20229;-68
2022/04/23 00:50:20;;;;;;;11.20;10.20;;;10.70;94.70;;;;;;5055946;28;20174;-68
2022/04/23 00:52:48;;;;;;;11.00;9.90;;;10.70;94.60;;;;;;5056410;28;20565;-68
2022/04/23 00:55:14;;;;;;;11.73;10.60;;;10.80;94.60;;;;;;5056005;28;20206;-68
2022/04/23 00:57:40;;;;;;;12.05;10.93;;;10.70;94.60;;;;;;5056589;28;20216;-68
2022/04/23 01:00:08;;;;;;;11.88;10.88;;;10.70;94.60;;;;;;5057041;28;20174;-68
2022/04/23 01:02:35;;;;;;;13.65;11.60;;;10.70;94.60;;;;;;5057045;28;20179;-68
2022/04/23 01:05:01;;;;;;;13.07;11.70;;;10.70;94.60;;;;;;5055405;28;20181;-68
2022/04/23 01:07:27;;;;;;;14.05;11.73;;;10.70;94.60;;;;;;5055522;28;20198;-68
2022/04/23 01:09:53;;;;;;;13.73;12.38;;;10.70;94.70;;;;;;5055045;28;20221;-68
2022/04/23 01:12:19;;;;;;;13.68;12.48;;;10.70;94.80;;;;;;5055416;28;20217;-68
2022/04/23 01:15:05;;;;;;;14.40;13.00;;;10.60;94.90;;;;;;5055165;28;20202;-68
2022/04/23 01:17:31;;;;;;;14.32;13.02;;;10.60;95.30;;;;;;5055342;28;20206;-68
2022/04/23 01:19:57;;;;;;;14.68;13.38;;;10.50;95.60;;;;;;5055547;28;20614;-68
2022/04/23 01:22:24;;;;;;;14.20;12.80;;;10.50;95.70;;;;;;5054796;28;20226;-68
2022/04/23 01:24:51;;;;;;;15.25;13.85;;;10.60;95.90;;;;;;5055937;28;20206;-68
2022/04/23 01:27:17;;;;;;;15.68;14.07;;;10.50;95.80;;;;;;5055937;28;20201;-68
2022/04/23 01:29:42;;;;;;;16.38;14.77;;;10.50;96.00;;;;;;5055110;28;20182;-68
2022/04/23 01:32:08;;;;;;;16.98;15.23;;;10.40;96.20;;;;;;5055692;28;20181;-68
2022/04/23 01:34:33;;;;;;;17.13;15.55;;;10.40;96.60;;;;;;5055957;28;20233;-68
2022/04/23 01:36:59;;;;;;;18.13;16.33;;;10.50;96.60;;;;;;5056516;28;20209;-68
2022/04/23 01:39:24;;;;;;;17.42;15.82;;;10.50;96.10;;;;;;5056213;28;20182;-68
2022/04/23 01:41:50;;;;;;;18.05;16.20;;;10.50;96.10;;;;;;5055176;28;20174;-68
2022/04/23 01:44:16;;;;;;;19.15;17.23;;;10.50;96.10;;;;;;5056531;28;20178;-68
2022/04/23 01:46:49;;;;;;;19.25;17.40;;;10.50;96.30;;;;;;5055324;28;20283;-68
2022/04/23 01:49:15;;;;;;;19.60;17.63;;;10.40;97.00;;;;;;5056375;28;20172;-68
2022/04/23 01:51:40;;;;;;;19.58;17.63;;;10.40;97.30;;;;;;5054482;28;20178;-68
2022/04/23 01:54:06;;;;;;;20.77;18.77;;;10.30;97.70;;;;;;5055212;28;20240;-68
2022/04/23 01:56:31;;;;;;;20.80;18.60;;;10.30;98.00;;;;;;5055028;28;20221;-68
2022/04/23 01:58:57;;;;;;;20.92;18.85;;;10.20;98.40;;;;;;5055073;28;20170;-68
2022/04/23 02:01:22;;;;;;;20.55;18.52;;;10.20;99.00;;;;;;5054731;28;20170;-68
2022/04/23 02:03:51;;;;;;;21.50;19.35;;;10.20;99.00;;;;;;5054804;28;20213;-68
2022/04/23 02:06:17;;;;;;;23.25;20.95;;;10.20;99.40;;;;;;5054725;28;20283;-68
2022/04/23 02:08:43;;;;;;;22.17;19.92;;;10.10;99.80;;;;;;5054394;28;20182;-68
2022/04/23 02:11:08;;;;;;;21.13;19.00;;;10.10;99.90;;;;;;5055241;28;20189;-68
2022/04/23 02:13:34;;;;;;;22.83;20.38;;;10.10;99.90;;;;;;5054262;28;20202;-68
2022/04/23 02:16:03;;;;;;;23.48;21.08;;;10.00;99.90;;;;;;5053907;28;20251;-68
2022/04/23 02:18:29;;;;;;;21.98;19.65;;;10.00;99.90;;;;;;5054649;28;20194;-68
2022/04/23 02:20:55;;;;;;;21.90;19.90;;;10.10;99.90;;;;;;5054087;28;20547;-68
2022/04/23 02:23:20;;;;;;;21.08;19.08;;;10.10;99.90;;;;;;5053899;28;20196;-68
2022/04/23 02:25:49;;;;;;;22.90;20.48;;;10.20;99.90;;;;;;5053959;28;20174;-68
2022/04/23 02:28:14;;;;;;;23.80;20.65;;;10.20;99.90;;;;;;5054567;28;20182;-68
2022/04/23 02:30:40;;;;;;;21.23;19.02;;;10.20;99.90;;;;;;5054238;28;20520;-68
2022/04/23 02:33:05;;;;;;;22.35;20.15;;;10.20;99.90;;;;;;5053538;28;20244;-68
2022/04/23 02:35:34;;;;;;;22.80;20.40;;;10.30;99.90;;;;;;5053498;28;20181;-68
2022/04/23 02:38:02;;;;;;;22.92;20.60;;;10.30;99.90;;;;;;5053584;28;20185;-68
2022/04/23 02:40:28;;;;;;;23.88;21.48;;;10.40;99.40;;;;;;5054465;28;20189;-68
2022/04/23 02:42:55;;;;;;;22.83;20.50;;;10.50;99.10;;;;;;5053617;28;20256;-68
2022/04/23 02:45:21;;;;;;;22.45;20.15;;;10.50;98.60;;;;;;5054323;28;20182;-68
2022/04/23 02:47:54;;;;;;;23.95;21.42;;;10.50;99.00;;;;;;5052923;28;20212;-68
2022/04/23 02:50:46;;;;;;;25.48;21.85;;;10.50;98.70;;;;;;5054193;28;20154;-68
2022/04/23 02:53:13;;;;;;;22.90;20.70;;;10.50;98.90;;;;;;5052520;28;20225;-68
2022/04/23 02:55:38;;;;;;;24.10;21.70;;;10.50;98.70;;;;;;5053834;28;20174;-68
2022/04/23 02:58:09;;;;;;;24.10;21.80;;;10.60;98.30;;;;;;5052764;28;20185;-68
2022/04/23 03:00:38;;;;;;;22.55;20.45;;;10.50;98.70;;;;;;5053151;28;20699;-68
2022/04/23 03:03:05;;;;;;;24.27;21.88;;;10.50;99.10;;;;;;5053222;28;20181;-68
2022/04/23 03:05:31;;;;;;;24.25;21.77;;;10.50;98.60;;;;;;5053921;28;20196;-68
2022/04/23 03:07:59;;;;;;;23.27;20.95;;;10.50;98.60;;;;;;5052803;28;20200;-68
2022/04/23 03:10:26;;;;;;;24.30;21.80;;;10.50;98.80;;;;;;5053781;28;20174;-68
2022/04/23 03:12:52;;;;;;;24.02;21.52;;;10.60;98.90;;;;;;5054028;28;20253;-68
2022/04/23 03:15:17;;;;;;;27.00;21.73;;;10.60;98.60;;;;;;5052722;28;20294;-68
2022/04/23 03:17:44;;;;;;;24.92;21.88;;;10.60;98.50;;;;;;5052582;28;20214;-68
2022/04/23 03:20:10;;;;;;;23.67;21.25;;;10.50;98.90;;;;;;5052795;28;20182;-68
2022/04/23 03:22:37;;;;;;;24.85;22.40;;;10.60;98.90;;;;;;5054142;28;20185;-69
2022/04/23 03:25:03;;;;;;;24.85;22.25;;;10.60;99.10;;;;;;5054013;28;20200;-68
2022/04/23 03:27:29;;;;;;;25.60;23.00;;;10.60;99.10;;;;;;5052758;28;20669;-68
2022/04/23 03:29:58;;;;;;;24.77;22.27;;;10.60;99.10;;;;;;5053576;28;20178;-68
2022/04/23 03:32:24;;;;;;;24.83;22.33;;;10.60;99.30;;;;;;5053047;28;20182;-68
2022/04/23 03:34:50;;;;;;;25.75;23.25;;;10.60;99.20;;;;;;5052866;28;20266;-68
2022/04/23 03:37:15;;;;;;;26.70;24.05;;;10.60;99.40;;;;;;5052812;28;20559;-68
2022/04/23 03:39:41;;;;;;;29.67;22.50;;;10.60;99.50;;;;;;5053205;28;20221;-68
2022/04/23 03:42:07;;;;;;;25.88;23.23;;;10.60;99.20;;;;;;5053720;28;20170;-68
2022/04/23 03:44:33;;;;;;;27.10;24.30;;;10.60;99.30;;;;;;5053938;28;20186;-68
2022/04/23 03:47:00;;;;;;;27.42;24.33;;;10.60;99.30;;;;;;5053698;28;20198;-68
2022/04/23 03:49:25;;;;;;;28.80;24.60;;;10.70;99.20;;;;;;5053637;28;20180;-68
2022/04/23 03:51:51;;;;;;;27.70;24.90;;;10.60;99.20;;;;;;5053725;28;20273;-68
2022/04/23 03:54:17;;;;;;;28.75;25.65;;;10.70;99.60;;;;;;5052679;28;20202;-68
2022/04/23 03:56:43;;;;;;;28.08;25.25;;;10.60;99.90;;;;;;5052697;28;20198;-68
2022/04/23 03:59:09;;;;;;;27.73;24.92;;;10.60;99.90;;;;;;5053204;28;20174;-68
2022/04/23 04:01:35;;;;;;;29.55;26.50;;;10.60;99.90;;;;;;5053134;28;20170;-68
2022/04/23 04:04:01;;;;;;;30.02;25.73;;;10.60;99.90;;;;;;5052431;28;20213;-68
2022/04/23 04:06:27;;;;;;;31.08;27.92;;;10.60;99.90;;;;;;5052887;28;20202;-68
2022/04/23 04:08:53;;;;;;;28.92;25.95;;;10.50;99.90;;;;;;5053822;28;20206;-68
2022/04/23 04:11:19;;;;;;;30.17;27.02;;;10.50;99.90;;;;;;5052507;28;20189;-68
2022/04/23 04:13:45;;;;;;;30.23;26.95;;;10.50;99.90;;;;;;5052904;28;20300;-68
2022/04/23 04:16:11;;;;;;;31.38;27.45;;;10.60;99.90;;;;;;5056966;28;20289;-68
2022/04/23 04:18:37;;;;;;;32.22;28.55;;;10.50;99.90;;;;;;5056400;28;20225;-68
2022/04/23 04:21:03;;;;;;;31.77;28.40;;;10.60;99.90;;;;;;5057404;28;20193;-68
2022/04/23 04:23:29;;;;;;;30.15;26.80;;;10.50;99.90;;;;;;5056404;28;20213;-68
2022/04/23 04:25:54;;;;;;;32.28;28.25;;;10.60;99.90;;;;;;5057075;28;20213;-68
2022/04/23 04:28:20;;;;;;;32.58;28.48;;;10.60;99.90;;;;;;5056723;28;20202;-68
2022/04/23 04:33:30;;;;;;;33.95;29.05;;;10.60;99.90;;;;;;5057711;28;20197;-68
2022/04/23 04:35:56;;;;;;;33.25;29.17;;;10.60;99.90;;;;;;5056584;28;20194;-68
2022/04/23 04:38:22;;;;;;;34.90;29.40;;;10.60;99.90;;;;;;5055683;28;20264;-68
2022/04/23 04:40:47;;;;;;;39.08;30.25;;;10.60;99.90;;;;;;5056206;28;20185;-68
2022/04/23 04:43:13;;;;;;;34.35;28.98;;;10.60;99.90;;;;;;5056649;28;20170;-68
2022/04/23 04:45:39;;;;;;;34.58;30.27;;;10.50;99.90;;;;;;5056631;28;20273;-68
2022/04/23 04:48:05;;;;;;;35.97;30.17;;;10.50;99.90;;;;;;5056150;28;20175;-68
2022/04/23 04:50:31;;;;;;;35.28;29.83;;;10.50;99.90;;;;;;5055900;28;20178;-69
2022/04/23 04:52:58;;;;;;;34.95;29.95;;;10.50;99.90;;;;;;5055946;28;20178;-68
2022/04/23 04:55:23;;;;;;;33.15;28.60;;;10.50;99.90;;;;;;5055462;28;20206;-68
2022/04/23 04:57:49;;;;;;;35.10;29.17;;;10.50;99.90;;;;;;5055476;28;20197;-68
2022/04/23 05:00:16;;;;;;;35.83;28.75;;;10.50;99.90;;;;;;5055195;28;20178;-67
2022/04/23 05:02:41;;;;;;;33.47;28.45;;;10.60;99.90;;;;;;5056163;28;20178;-67
2022/04/23 05:05:08;;;;;;;32.10;28.60;;;10.70;99.90;;;;;;5055247;28;20513;-67
2022/04/23 05:07:33;;;;;;;32.83;28.73;;;10.70;99.90;;;;;;5056451;28;20198;-68
2022/04/23 05:10:03;;;;;;;34.35;28.38;;;10.70;99.90;;;;;;5054951;28;20185;-68
2022/04/23 05:12:28;;;;;;;35.97;28.25;;;10.70;99.90;;;;;;5054884;28;20268;-68
2022/04/23 05:14:54;;;;;;;36.17;29.67;;;10.70;99.90;;;;;;5054770;28;20269;-68
2022/04/23 05:17:20;;;;;;;35.38;28.55;;;10.60;99.90;;;;;;5054869;28;20193;-68
2022/04/23 05:19:45;;;;;;;35.40;28.58;;;10.60;99.90;;;;;;5054826;28;20181;-68
2022/04/23 05:22:11;;;;;;;34.90;29.27;;;10.50;99.90;;;;;;5054816;28;20174;-68
2022/04/23 05:24:36;;;;;;;35.63;28.88;;;10.50;99.90;;;;;;5055251;28;20235;-68
2022/04/23 05:27:02;;;;;;;31.70;27.48;;;10.60;99.90;;;;;;5053531;28;20198;-68
2022/04/23 05:29:28;;;;;;;37.92;29.58;;;10.60;99.90;;;;;;5054601;28;20182;-68
2022/04/23 05:31:53;;;;;;;35.83;28.88;;;10.60;99.90;;;;;;5054481;28;20193;-68
2022/04/23 05:34:19;;;;;;;33.67;28.58;;;10.60;99.90;;;;;;5055820;28;20202;-68
2022/04/23 05:36:44;;;;;;;35.47;29.25;;;10.60;99.90;;;;;;5054822;28;20205;-68
2022/04/23 05:39:10;;;;;;;33.22;28.52;;;10.70;99.90;;;;;;5056038;28;20301;-69
2022/04/23 05:41:36;;;;;;;33.40;28.55;;;10.90;99.90;;;;;;5055808;28;20177;-68
2022/04/23 05:44:02;;;;;;;36.65;28.20;;;11.20;99.90;;;;;;5055186;28;20276;-68
2022/04/23 05:46:28;;;;;;;34.08;27.70;;;11.30;99.90;;;;;;5054184;28;20198;-68
2022/04/23 05:48:55;;;;;;;34.22;28.70;;;11.50;99.90;;;;;;5055295;28;20240;-68
2022/04/23 05:51:21;;;;;;;32.70;27.38;;;11.60;99.70;;;;;;5055152;28;20243;-68
2022/04/23 05:53:46;;;;;;;31.52;27.70;;;11.60;99.90;;;;;;5054408;28;20657;-68
2022/04/23 05:56:12;;;;;;;35.58;28.17;;;11.60;99.90;;;;;;5054250;28;20204;-68
2022/04/23 05:58:38;;;;;;;35.70;28.95;;;11.50;99.80;;;;;;5055497;28;20196;-68
2022/04/23 06:01:04;;;;;;;31.95;27.92;;;11.30;99.90;;;;;;5054134;28;20266;-69
2022/04/23 06:03:30;;;;;;;32.88;28.15;;;11.20;99.90;;;;;;5055342;28;20251;-68
2022/04/23 06:05:55;;;;;;;35.42;30.05;;;11.20;99.90;;;;;;5054976;28;20661;-68
2022/04/23 06:08:21;;;;;;;36.65;31.38;;;11.20;99.90;;;;;;5054596;28;20181;-68
2022/04/23 06:10:46;;;;;;;44.90;32.90;;;11.20;99.90;;;;;;5054250;28;20190;-68
2022/04/23 06:13:12;;;;;;;37.03;31.08;;;11.30;99.90;;;;;;5053627;28;20178;-69
2022/04/23 06:15:37;;;;;;;37.80;30.15;;;11.40;99.90;;;;;;5053631;28;20182;-68
2022/04/23 06:18:03;;;;;;;39.17;32.03;;;11.60;99.90;;;;;;5053620;28;20200;-68
2022/04/23 06:20:29;;;;;;;36.67;30.40;;;11.60;99.90;;;;;;5053803;28;20627;-68
2022/04/23 06:22:55;;;;;;;34.72;28.92;;;11.70;99.90;;;;;;5054735;28;20174;-68
2022/04/23 06:25:21;;;;;;;36.30;30.65;;;11.70;99.90;;;;;;5054672;28;20174;-68
2022/04/23 06:27:47;;;;;;;37.90;30.33;;;11.50;99.90;;;;;;5054131;28;20198;-68
2022/04/23 06:30:12;;;;;;;40.28;31.40;;;11.40;99.90;;;;;;5053310;28;20232;-68
2022/04/23 06:32:39;;;;;;;36.97;31.35;;;11.50;99.90;;;;;;5053355;28;20212;-67
2022/04/23 06:35:08;;;;;;;37.78;30.88;;;11.50;99.90;;;;;;5053168;28;20217;-66
2022/04/23 06:37:41;;;;;;;38.45;31.63;;;11.30;99.90;;;;;;5052969;28;20217;-66
2022/04/23 06:40:35;;;;;;;41.05;33.25;;;11.40;99.90;;;;;;5054628;28;20177;-66
2022/04/23 06:43:01;;;;;;;37.97;29.65;;;11.30;99.90;;;;;;5054553;28;20158;-67
2022/04/23 06:45:26;;;;;;;36.58;29.95;;;11.20;99.90;;;;;;5054012;28;20186;-67
2022/04/23 06:48:04;;;;;;;34.15;29.13;;;11.30;99.90;;;;;;5053497;28;20206;-68
2022/04/23 06:51:00;;;;;;;34.92;28.42;;;11.50;99.90;;;;;;5054999;28;20197;-68
2022/04/23 06:53:26;;;;;;;33.38;28.38;;;11.40;99.90;;;;;;5054073;28;20182;-68
2022/04/23 06:55:51;;;;;;;37.72;29.17;;;11.40;99.90;;;;;;5053245;28;20185;-68
2022/04/23 06:58:19;;;;;;;35.80;27.48;;;11.40;99.90;;;;;;5053172;28;20185;-68
2022/04/23 07:00:52;;;;;;;33.65;28.40;;;11.50;99.70;;;;;;5055071;28;20245;-68
2022/04/23 07:03:17;;;;;;;31.25;27.85;;;11.50;99.90;;;;;;5054179;28;20169;-68
2022/04/23 07:06:19;;;;;;;34.40;28.85;;;11.50;99.90;;;;;;5053568;28;20174;-68
2022/04/23 07:08:44;;;;;;;34.67;29.02;;;11.60;99.50;;;;;;5054175;28;20162;-68
2022/04/23 07:11:11;;;;;;;36.40;28.95;;;11.70;99.40;;;;;;5052914;28;20208;-68
2022/04/23 07:13:38;;;;;;;34.47;28.88;;;11.80;98.90;;;;;;5052677;28;20205;-69
2022/04/23 07:16:05;;;;;;;30.38;25.85;;;11.90;97.80;;;;;;5052693;28;20229;-68
2022/04/23 07:18:31;;;;;;;30.60;27.23;;;11.90;96.60;;;;;;5053698;28;20198;-68
2022/04/23 07:20:57;;;;;;;30.27;26.75;;;11.90;97.40;;;;;;5052754;28;20170;-69
2022/04/23 07:26:14;;;;;;;27.45;24.55;;;12.70;93.90;;;;;;5053733;28;20293;-68
2022/04/23 07:28:40;;;;;;;26.52;23.77;;;12.80;91.80;;;;;;5052955;28;20169;-68
2022/04/23 07:31:05;;;;;;;28.05;24.48;;;13.00;91.20;;;;;;5052621;28;20178;-81
2022/04/23 07:39:00;;;;;;;29.25;25.08;;;13.10;89.60;;;;;;5054700;28;20205;-69
2022/04/23 07:41:27;;;;;;;26.85;23.55;;;12.70;90.00;;;;;;5054228;28;20171;-69
2022/04/23 07:44:05;;;;;;;27.20;23.55;;;12.60;91.00;;;;;;5052660;28;20186;-69
2022/04/23 07:46:31;;;;;;;28.27;25.23;;;12.80;91.20;;;;;;5052531;28;20201;-68
2022/04/23 07:48:58;;;;;;;27.92;24.63;;;13.10;90.80;;;;;;5052204;28;20179;-69
2022/04/23 07:51:26;;;;;;;25.85;23.02;;;13.30;89.40;;;;;;5053419;28;20205;-69
2022/04/23 07:53:55;;;;;;;26.65;23.75;;;13.40;87.80;;;;;;5051916;28;20553;-69
2022/04/23 07:56:21;;;;;;;33.80;25.42;;;13.50;87.80;;;;;;5051931;28;20220;-69
2022/04/23 07:58:47;;;;;;;27.48;23.80;;;13.30;86.50;;;;;;5051991;28;20634;-69
2022/04/23 08:01:16;;;;;;;27.17;24.48;;;13.10;87.60;;;;;;5053278;28;20178;-67
2022/04/23 08:03:42;;;;;;;28.38;24.08;;;13.20;87.70;;;;;;5051897;28;20320;-67
2022/04/23 08:06:10;;;;;;;26.40;22.00;;;13.40;87.00;;;;;;5051852;28;20241;-67
2022/04/23 08:08:39;;;;;;;24.02;21.52;;;13.70;85.40;;;;;;5052467;28;20198;-69
2022/04/23 08:11:06;;;;;;;24.67;22.08;;;13.90;84.30;;;;;;5052283;28;20622;-67
2022/04/23 08:13:38;;;;;;;24.38;21.88;;;14.00;83.10;;;;;;5052040;28;20205;-68
2022/04/23 08:16:05;;;;;;;25.02;22.23;;;13.80;83.20;;;;;;5052723;28;20190;-67
2022/04/23 08:18:30;;;;;;;25.58;22.90;;;13.80;84.20;;;;;;5051783;28;20291;-67
2022/04/23 08:20:56;;;;;;;24.67;22.05;;;13.90;81.40;;;;;;5053308;28;20206;-67
2022/04/23 08:23:22;;;;;;;25.85;22.98;;;14.00;81.60;;;;;;5051804;28;20182;-67
2022/04/23 08:25:47;;;;;;;24.55;22.00;;;13.90;80.30;;;;;;5051729;28;20257;-67
2022/04/23 08:30:57;;;;;;;25.23;21.38;;;13.80;80.40;;;;;;5053566;28;20165;-67
2022/04/23 08:33:23;;;;;;;23.85;21.35;;;13.90;79.60;;;;;;5051437;28;20182;-67
2022/04/23 08:35:50;;;;;;;23.52;21.02;;;13.70;79.50;;;;;;5052464;28;20171;-67
2022/04/23 08:38:16;;;;;;;25.35;22.65;;;13.50;80.60;;;;;;5051708;28;20272;-67
2022/04/23 08:40:44;;;;;;;23.08;20.67;;;13.50;80.10;;;;;;5051986;28;20175;-67
2022/04/23 08:43:10;;;;;;;22.75;20.45;;;13.70;79.60;;;;;;5053073;28;20174;-67
2022/04/23 08:45:37;;;;;;;22.15;19.95;;;13.90;79.00;;;;;;5051562;28;20200;-67
2022/04/23 08:48:14;;;;;;;24.63;19.35;;;14.10;78.30;;;;;;5051568;28;20653;-67
2022/04/23 08:50:42;;;;;;;23.85;19.38;;;14.20;77.20;;;;;;5051637;28;20170;-67
2022/04/23 08:53:15;;;;;;;21.42;19.20;;;14.00;75.80;;;;;;5052076;28;20186;-67
2022/04/23 08:55:45;;;;;;;23.10;19.55;;;14.20;78.00;;;;;;5051960;28;20178;-67
2022/04/23 08:58:12;;;;;;;21.00;18.92;;;14.50;75.60;;;;;;5051480;28;20269;-67
2022/04/23 09:00:37;;;;;;;21.33;19.23;;;14.90;74.10;;;;;;5053651;28;20186;-67
2022/04/23 09:03:03;;;;;;;20.98;18.83;;;15.40;73.60;;;;;;5055385;28;20307;-67
2022/04/23 09:05:31;;;;;;;20.63;18.40;;;15.70;70.10;;;;;;5056454;28;20192;-67
2022/04/23 09:07:56;;;;;;;19.67;17.70;;;15.70;68.30;;;;;;5056047;28;20542;-67
2022/04/23 09:10:56;;;;;;;20.67;18.67;;;15.70;68.40;;;;;;5056117;28;20186;-67
2022/04/23 09:13:29;;;;;;;20.10;18.10;;;15.60;68.30;;;;;;5055982;28;20161;-67
2022/04/23 09:24:45;;;;;;;18.67;16.80;;;15.20;67.60;;;;;;5056142;28;20228;-67
2022/04/23 09:27:11;;;;;;;20.48;18.00;;;15.20;67.70;;;;;;5055741;28;20206;-67
2022/04/23 09:29:37;;;;;;;18.55;16.60;;;15.20;67.10;;;;;;5054579;28;20209;-67
2022/04/23 09:32:14;;;;;;;19.80;17.88;;;15.10;67.60;;;;;;5054805;28;20214;-67
2022/04/23 09:34:41;;;;;;;19.75;17.73;;;15.00;67.90;;;;;;5054534;28;20843;-67
2022/04/23 09:37:08;;;;;;;20.20;18.30;;;15.20;67.20;;;;;;5054405;28;20600;-67
2022/04/23 09:39:35;;;;;;;20.95;18.73;;;15.20;67.20;;;;;;5054624;28;20178;-67
2022/04/23 09:42:19;;;;;;;20.15;18.05;;;15.40;66.70;;;;;;5054329;28;20189;-67
2022/04/23 09:44:46;;;;;;;19.23;17.17;;;15.50;66.30;;;;;;5055134;28;20174;-67
2022/04/23 09:47:31;;;;;;;21.17;17.58;;;15.80;65.60;;;;;;5054599;28;20610;-67
2022/04/23 09:49:58;;;;;;;19.05;17.15;;;15.70;64.30;;;;;;5054155;28;20178;-67
2022/04/23 09:52:30;;;;;;;19.05;17.23;;;15.60;65.20;;;;;;5055342;28;20170;-67
2022/04/23 09:55:02;;;;;;;19.35;17.45;;;15.80;63.80;;;;;;5053998;28;20260;-67
2022/04/23 09:57:28;;;;;;;18.83;17.00;;;16.00;64.50;;;;;;5053957;28;20198;-67
2022/04/23 09:59:54;;;;;;;19.15;17.17;;;16.20;63.80;;;;;;5054198;28;20182;-67
2022/04/23 10:02:20;;;;;;;17.35;15.63;;;16.10;63.10;;;;;;5053971;28;20196;-67
2022/04/23 10:04:46;;;;;;;19.02;16.77;;;16.20;62.20;;;;;;5054124;28;20619;-67
2022/04/23 10:07:16;;;;;;;17.40;15.63;;;16.10;61.00;;;;;;5054066;28;20202;-67
2022/04/23 10:09:47;;;;;;;20.33;16.58;;;16.10;63.30;;;;;;5054621;28;20174;-67
2022/04/23 10:12:18;;;;;;;16.45;14.95;;;15.80;62.70;;;;;;5054169;28;20257;-67
2022/04/23 10:14:49;;;;;;;17.00;15.27;;;16.10;62.40;;;;;;5054236;28;20198;-67
2022/04/23 10:17:18;;;;;;;16.90;15.23;;;16.40;61.50;;;;;;5053549;28;20198;-67
2022/04/23 10:19:44;;;;;;;16.00;14.40;;;16.40;60.00;;;;;;5055147;28;20238;-67
2022/04/23 10:22:31;;;;;;;15.90;14.32;;;16.30;60.40;;;;;;5054974;28;20202;-67
2022/04/23 10:25:08;;;;;;;16.27;14.27;;;16.10;60.00;;;;;;5054741;28;20614;-67
2022/04/23 10:27:34;;;;;;;16.02;14.48;;;15.80;61.70;;;;;;5054745;28;20263;-67
2022/04/23 10:30:04;;;;;;;15.35;13.95;;;15.90;61.70;;;;;;5053801;28;20269;-67
2022/04/23 10:32:40;;;;;;;16.92;14.73;;;15.80;61.90;;;;;;5053742;28;20224;-67
2022/04/23 10:35:28;;;;;;;17.75;14.52;;;15.70;61.40;;;;;;5054147;28;20209;-67
2022/04/23 10:37:56;;;;;;;18.70;15.18;;;15.50;61.20;;;;;;5047823;28;20214;-67
2022/04/23 10:40:22;;;;;;;16.23;14.57;;;15.30;63.30;;;;;;5054463;28;20536;-67
2022/04/23 10:43:08;;;;;;;16.27;14.65;;;15.20;62.90;;;;;;5054342;28;20194;-67
2022/04/23 10:45:34;;;;;;;16.95;15.13;;;15.30;62.90;;;;;;5053156;28;20269;-67
2022/04/23 10:48:23;;;;;;;16.90;15.20;;;15.40;62.90;;;;;;5052894;28;20202;-67
2022/04/23 10:51:01;;;;;;;17.00;14.80;;;15.40;62.40;;;;;;5043880;28;20192;-67
2022/04/23 10:53:48;;;;;;;15.65;14.15;;;15.40;61.90;;;;;;5052867;28;20174;-67
2022/04/23 10:56:19;;;;;;;14.75;13.35;;;15.70;62.10;;;;;;5052752;28;20289;-67
2022/04/23 10:58:45;;;;;;;16.75;12.90;;;15.90;61.20;;;;;;5054086;28;20170;-67
2022/04/23 11:01:21;;;;;;;13.90;12.60;;;16.20;60.50;;;;;;5052854;28;20178;-67
2022/04/23 11:03:59;;;;;;;14.70;13.30;;;16.30;61.00;;;;;;5052725;28;20182;-67
2022/04/23 11:12:22;;;;;;;14.25;12.80;;;16.60;58.50;;;;;;5054181;28;20165;-67
2022/04/23 11:14:52;;;;;;;14.45;13.10;;;16.80;58.50;;;;;;5053796;28;20224;-67
2022/04/23 11:17:48;;;;;;;14.63;13.32;;;17.00;58.00;;;;;;5052647;28;20198;-67
2022/04/23 11:20:24;;;;;;;16.38;14.63;;;16.80;58.30;;;;;;5052488;28;20174;-67
2022/04/23 11:22:51;;;;;;;15.38;13.80;;;16.60;58.60;;;;;;5053951;28;20162;-67
2022/04/23 11:25:17;;;;;;;13.98;12.70;;;16.30;58.60;;;;;;5052415;28;20182;-67
2022/04/23 11:27:48;;;;;;;13.57;12.27;;;16.30;59.20;;;;;;5052367;28;20628;-67
2022/04/23 11:30:14;;;;;;;13.50;12.18;;;16.60;58.90;;;;;;5053501;28;20194;-67
2022/04/23 11:32:39;;;;;;;14.77;12.13;;;16.90;59.00;;;;;;5052263;28;20178;-67
2022/04/23 11:35:07;;;;;;;13.70;12.23;;;17.20;58.60;;;;;;5052231;28;20230;-67
2022/04/23 11:37:34;;;;;;;13.23;12.00;;;17.20;56.80;;;;;;5052123;28;20201;-67
2022/04/23 11:40:11;;;;;;;14.73;10.90;;;17.30;56.40;;;;;;5052237;28;20228;-67
2022/04/23 11:42:44;;;;;;;13.07;10.80;;;17.20;56.20;;;;;;5053231;28;20223;-67
2022/04/23 11:45:12;;;;;;;13.18;11.75;;;17.10;57.50;;;;;;5053068;28;20270;-67
2022/04/23 11:47:38;;;;;;;15.18;13.68;;;16.80;56.70;;;;;;5052144;28;20273;-67
2022/04/23 11:50:09;;;;;;;13.23;11.40;;;16.30;57.20;;;;;;5052489;28;20239;-67
2022/04/23 11:52:34;;;;;;;11.82;10.63;;;16.10;58.10;;;;;;5052956;28;20186;-67
2022/04/23 11:55:01;;;;;;;13.10;10.75;;;16.10;59.10;;;;;;5052301;28;20202;-67
2022/04/23 11:57:26;;;;;;;11.43;10.27;;;16.10;59.30;;;;;;5053188;28;20185;-67
2022/04/23 12:00:03;;;;;;;12.60;11.30;;;16.20;59.50;;;;;;5051957;28;20656;-67
2022/04/23 12:02:32;;;;;;;11.95;10.50;;;16.30;59.20;;;;;;5052097;28;20169;-67
2022/04/23 12:05:02;;;;;;;10.88;9.88;;;16.70;59.00;;;;;;5052217;28;20185;-67
2022/04/23 12:07:32;;;;;;;10.75;9.80;;;16.90;57.30;;;;;;5051884;28;20205;-67
2022/04/23 12:09:59;;;;;;;11.27;10.13;;;17.00;56.00;;;;;;5052761;28;20178;-67
2022/04/23 12:12:26;;;;;;;10.13;9.10;;;17.20;55.80;;;;;;5051915;28;20179;-67
2022/04/23 12:14:55;;;;;;;10.35;9.35;;;17.60;55.90;;;;;;5053324;28;20289;-67
2022/04/23 12:17:31;;;;;;;10.85;9.18;;;18.10;55.70;;;;;;5052043;28;20263;-67
2022/04/23 12:20:00;;;;;;;10.52;9.43;;;18.40;54.30;;;;;;5052776;28;20239;-67
2022/04/23 12:22:31;;;;;;;9.63;8.73;;;18.20;53.10;;;;;;5052976;28;20174;-67
